Terminal Aerodrome Forecast
Issued by NWS Paducah, KY

Home | Current Version | Previous Version | Text Only | Print | Product List | Glossary On
Versions: 1 2 3 4 5 6 7 8 9 10 11 12 13 14
000
FTUS43 KPAH 252300
TAFEVV
TAF
KEVV 252340Z 2600/2624 19006KT 5SM -RA BR OVC008
     FM260100 32014G22KT 6SM -RASN BR OVC007
     FM260500 33016G25KT P6SM BKN015
     FM261200 31009KT P6SM BKN040
     FM261900 26007KT P6SM SCT050=

USA.gov is the U.S. government's official web portal to all federal, state and local government web resources and services.